Time;durP1;ratioP1;P1;durP2;ratioP2;P2;SDS_P1;SDS_P2;PMS_P1;PMS_P2;Temp;Humidity;BMP_temperature;BMP_pressure;BME280_temperature;BME280_humidity;BME280_pressure;Samples;Min_cycle;Max_cycle;Signal;HPM_P1;HPM_P2
2023/01/15 00:00:19;;;;;;;34.83;23.77;;;10.00;90.00;;;;;;6306229;22;20007;-81
2023/01/15 00:02:45;;;;;;;34.53;24.20;;;10.10;90.20;;;;;;6306365;22;20007;-81
2023/01/15 00:05:11;;;;;;;34.08;24.35;;;10.00;90.10;;;;;;6305539;22;19999;-82
2023/01/15 00:07:36;;;;;;;39.33;23.83;;;10.10;90.20;;;;;;6303754;22;20014;-82
2023/01/15 00:10:02;;;;;;;39.22;25.08;;;10.10;90.10;;;;;;6304642;22;20070;-82
2023/01/15 00:12:28;;;;;;;36.33;24.77;;;10.10;90.10;;;;;;6305058;22;20021;-82
2023/01/15 00:14:55;;;;;;;36.80;24.20;;;10.10;90.10;;;;;;6305372;22;20446;-82
2023/01/15 00:17:21;;;;;;;37.25;24.38;;;10.00;89.80;;;;;;6306257;22;20003;-82
2023/01/15 00:19:46;;;;;;;41.95;24.63;;;10.10;90.10;;;;;;6305698;22;20034;-82
2023/01/15 00:22:12;;;;;;;33.45;24.58;;;10.10;90.00;;;;;;6305761;22;20003;-82
2023/01/15 00:27:40;;;;;;;35.15;23.98;;;10.10;90.00;;;;;;6306423;22;20018;-83
2023/01/15 00:30:09;;;;;;;36.58;23.35;;;10.00;90.00;;;;;;6306628;22;19995;-82
2023/01/15 00:32:44;;;;;;;35.83;23.25;;;10.00;89.60;;;;;;6307062;22;19996;-82
2023/01/15 00:35:15;;;;;;;33.95;23.25;;;10.10;90.00;;;;;;6306629;22;20314;-82
2023/01/15 00:37:41;;;;;;;33.30;21.85;;;10.00;89.70;;;;;;6307281;22;19995;-83
2023/01/15 00:40:08;;;;;;;32.95;22.27;;;10.00;90.00;;;;;;6307159;22;20003;-83
2023/01/15 00:42:34;;;;;;;26.90;19.58;;;;;;;;;;6306862;22;20021;-83
2023/01/15 00:45:06;;;;;;;28.70;20.55;;;10.00;89.70;;;;;;6306805;22;20061;-83
2023/01/15 00:47:32;;;;;;;33.10;20.80;;;10.00;90.00;;;;;;6306610;22;20406;-82
2023/01/15 00:49:57;;;;;;;27.38;20.63;;;10.00;90.00;;;;;;6306855;22;19998;-83
2023/01/15 00:52:23;;;;;;;30.73;20.40;;;10.00;90.00;;;;;;6307141;22;20054;-83
2023/01/15 00:54:49;;;;;;;28.60;20.45;;;10.00;90.00;;;;;;6306643;22;19995;-82
2023/01/15 00:57:14;;;;;;;31.83;20.85;;;9.90;89.40;;;;;;6306683;22;20379;-83
2023/01/15 00:59:40;;;;;;;30.38;21.02;;;10.00;89.40;;;;;;6306212;22;20317;-83
2023/01/15 01:02:06;;;;;;;29.27;20.05;;;10.00;89.80;;;;;;6305900;22;20007;-85
2023/01/15 01:04:32;;;;;;;32.72;22.00;;;9.90;89.60;;;;;;6306848;22;20053;-84
2023/01/15 01:06:57;;;;;;;28.85;20.92;;;9.90;89.70;;;;;;6307449;22;20004;-84
2023/01/15 01:09:23;;;;;;;30.80;21.55;;;9.90;89.90;;;;;;6308175;22;20000;-83
2023/01/15 01:11:49;;;;;;;29.77;21.50;;;9.90;90.00;;;;;;6308624;22;20240;-83
2023/01/15 01:14:15;;;;;;;28.77;20.02;;;9.90;90.00;;;;;;6309225;22;20019;-83
2023/01/15 01:16:40;;;;;;;30.85;20.98;;;9.90;90.20;;;;;;6308314;22;20295;-83
2023/01/15 01:19:16;;;;;;;27.00;19.10;;;10.00;89.90;;;;;;6308604;22;20009;-84
2023/01/15 01:21:43;;;;;;;29.08;18.35;;;;;;;;;;6309166;22;20006;-83
2023/01/15 01:24:14;;;;;;;31.23;18.65;;;10.00;89.50;;;;;;6308473;22;20438;-84
2023/01/15 01:26:40;;;;;;;23.40;17.15;;;10.00;89.80;;;;;;6308568;22;20003;-84
2023/01/15 01:29:06;;;;;;;24.83;17.20;;;;;;;;;;6308958;22;20021;-84
2023/01/15 01:31:32;;;;;;;23.75;16.90;;;;;;;;;;6308261;22;19996;-83
2023/01/15 01:33:59;;;;;;;24.77;16.80;;;10.10;88.50;;;;;;6309511;22;20002;-84
2023/01/15 01:36:33;;;;;;;26.27;17.23;;;10.10;88.30;;;;;;6309335;22;20314;-84
2023/01/15 01:38:59;;;;;;;24.65;16.92;;;10.10;88.50;;;;;;6309427;22;20008;-84
2023/01/15 01:41:26;;;;;;;22.33;15.77;;;10.10;88.30;;;;;;6308867;22;20014;-84
2023/01/15 01:44:04;;;;;;;24.30;17.65;;;10.10;88.20;;;;;;6306926;22;20077;-84
2023/01/15 01:46:33;;;;;;;22.15;16.02;;;10.10;88.00;;;;;;6309944;22;20003;-84
2023/01/15 01:49:09;;;;;;;22.38;15.93;;;10.20;87.90;;;;;;6309063;22;19999;-85
2023/01/15 01:51:42;;;;;;;23.15;16.25;;;10.10;87.20;;;;;;6308373;22;20031;-85
2023/01/15 01:54:09;;;;;;;18.75;13.68;;;10.20;87.10;;;;;;6308640;22;20000;-84
2023/01/15 01:56:36;;;;;;;22.75;14.93;;;;;;;;;;6308265;22;20003;-84
2023/01/15 01:59:04;;;;;;;21.38;14.55;;;10.20;86.90;;;;;;6308796;22;20022;-85
2023/01/15 02:01:29;;;;;;;20.83;14.15;;;10.20;87.40;;;;;;6308585;22;20031;-84
2023/01/15 02:03:56;;;;;;;21.27;15.95;;;;;;;;;;6308293;22;20006;-84
2023/01/15 02:06:24;;;;;;;23.17;16.23;;;10.20;87.00;;;;;;6308514;22;20031;-84
2023/01/15 02:08:50;;;;;;;22.63;15.88;;;10.20;87.20;;;;;;6308723;22;20006;-85
2023/01/15 02:11:19;;;;;;;23.10;17.40;;;10.20;87.00;;;;;;6309012;22;20081;-84
2023/01/15 02:14:04;;;;;;;22.65;16.63;;;10.20;86.80;;;;;;6309553;22;20002;-84
2023/01/15 02:16:41;;;;;;;25.25;16.50;;;10.20;86.70;;;;;;6308632;22;20003;-84
2023/01/15 02:19:40;;;;;;;25.48;16.85;;;10.20;86.50;;;;;;6307689;22;20422;-84
2023/01/15 02:22:43;;;;;;;23.00;16.85;;;10.20;86.30;;;;;;6309431;22;20007;-84
2023/01/15 02:25:21;;;;;;;22.85;16.27;;;;;;;;;;6307876;22;20030;-85
2023/01/15 02:28:08;;;;;;;24.42;16.33;;;10.20;85.90;;;;;;6306442;22;20057;-84
2023/01/15 02:30:44;;;;;;;21.50;16.52;;;10.30;85.70;;;;;;6307894;22;20003;-85
2023/01/15 02:33:35;;;;;;;24.52;16.23;;;10.30;86.10;;;;;;6308417;22;19995;-86
2023/01/15 02:36:05;;;;;;;19.85;14.40;;;10.30;86.00;;;;;;6307777;22;20003;-86
2023/01/15 02:38:40;;;;;;;23.05;15.63;;;10.30;85.90;;;;;;6308594;22;19999;-85
2023/01/15 02:41:15;;;;;;;19.35;13.35;;;10.30;86.30;;;;;;6308404;22;20003;-84
2023/01/15 02:43:54;;;;;;;22.92;15.32;;;10.30;86.90;;;;;;6309148;22;20045;-82
2023/01/15 02:46:23;;;;;;;18.35;14.27;;;10.30;86.50;;;;;;6307795;22;20010;-83
2023/01/15 02:48:52;;;;;;;19.92;14.13;;;10.30;86.30;;;;;;6308253;22;20004;-84
2023/01/15 02:51:24;;;;;;;20.77;13.13;;;10.30;86.70;;;;;;6307586;22;20638;-84
2023/01/15 02:53:54;;;;;;;20.48;14.57;;;10.30;86.70;;;;;;6308573;22;20278;-84
2023/01/15 02:56:25;;;;;;;17.80;13.80;;;10.30;86.80;;;;;;6307455;22;20315;-85
2023/01/15 02:58:56;;;;;;;19.45;14.27;;;10.30;86.40;;;;;;6309077;22;20074;-85
2023/01/15 03:01:27;;;;;;;19.58;13.93;;;10.30;86.70;;;;;;6306829;22;20406;-83
2023/01/15 03:03:53;;;;;;;18.13;13.48;;;;;;;;;;6309294;22;20426;-83
2023/01/15 03:06:56;;;;;;;19.90;13.90;;;10.20;86.30;;;;;;6308535;22;20007;-84
2023/01/15 03:09:23;;;;;;;18.77;13.65;;;10.30;86.80;;;;;;6308327;22;20003;-85
2023/01/15 03:12:11;;;;;;;19.05;13.57;;;10.30;86.80;;;;;;6308302;22;20023;-83
2023/01/15 03:15:00;;;;;;;19.80;14.02;;;10.30;86.90;;;;;;6307628;22;19999;-84
2023/01/15 03:17:40;;;;;;;22.00;15.02;;;10.30;86.80;;;;;;6295739;22;20027;-84
2023/01/15 03:20:22;;;;;;;24.98;18.05;;;10.20;86.70;;;;;;6281702;22;20430;-84
2023/01/15 03:22:52;;;;;;;19.75;13.70;;;10.10;86.10;;;;;;6308742;22;19999;-85
2023/01/15 03:25:23;;;;;;;21.55;14.77;;;10.10;86.80;;;;;;6307581;22;20078;-83
2023/01/15 03:28:06;;;;;;;;;;;;;;;;;;;;;
2023/01/15 03:30:33;;;;;;;23.08;16.10;;;10.10;87.20;;;;;;6305781;22;20392;-85
2023/01/15 03:32:59;;;;;;;22.13;14.95;;;10.00;86.60;;;;;;6307198;22;20011;-85
2023/01/15 03:35:56;;;;;;;20.75;14.73;;;10.00;87.20;;;;;;6308207;22;20121;-85
2023/01/15 03:38:25;;;;;;;26.20;16.05;;;10.00;87.20;;;;;;6306932;22;20456;-85
2023/01/15 03:41:03;;;;;;;20.50;14.80;;;;;;;;;;6307865;22;20085;-85
2023/01/15 03:43:44;;;;;;;20.77;13.93;;;9.90;86.60;;;;;;6305427;22;20010;-85
2023/01/15 03:46:53;;;;;;;22.05;14.25;;;10.00;87.10;;;;;;6305424;22;20053;-84
2023/01/15 03:49:26;;;;;;;18.33;13.75;;;10.00;87.10;;;;;;6249113;22;20007;-84
2023/01/15 03:52:13;;;;;;;19.98;14.32;;;9.40;86.80;;;;;;6307582;22;20432;-84
2023/01/15 03:54:59;;;;;;;19.55;13.40;;;10.00;87.10;;;;;;6306651;22;20033;-84
2023/01/15 03:57:36;;;;;;;20.40;13.02;;;10.00;87.10;;;;;;6306978;22;19999;-84
2023/01/15 04:00:14;;;;;;;19.98;13.73;;;10.00;86.70;;;;;;6306585;22;20092;-83
2023/01/15 04:02:41;;;;;;;18.02;13.23;;;10.00;87.00;;;;;;6307363;22;20402;-83
2023/01/15 04:05:07;;;;;;;19.63;13.63;;;10.00;86.90;;;;;;6306709;22;19999;-83
2023/01/15 04:07:33;;;;;;;18.38;12.50;;;9.90;87.10;;;;;;6306882;22;20003;-84
2023/01/15 04:09:59;;;;;;;20.95;14.07;;;9.90;87.20;;;;;;6306551;22;20030;-84
2023/01/15 04:12:26;;;;;;;15.93;12.27;;;9.90;87.30;;;;;;6305901;22;19999;-83
2023/01/15 04:14:52;;;;;;;18.05;13.20;;;9.90;87.30;;;;;;6306301;22;19996;-83
2023/01/15 04:17:18;;;;;;;16.00;11.98;;;9.90;87.40;;;;;;6278828;22;20068;-84
2023/01/15 04:19:43;;;;;;;20.20;13.80;;;9.90;87.10;;;;;;6307007;22;20004;-84
2023/01/15 04:22:10;;;;;;;18.75;13.05;;;9.90;87.50;;;;;;6307381;22;20003;-83
2023/01/15 04:24:36;;;;;;;19.85;13.73;;;9.90;87.50;;;;;;6306840;22;20018;-84
2023/01/15 04:27:02;;;;;;;17.17;12.52;;;10.00;87.60;;;;;;6306519;22;20004;-84
2023/01/15 04:29:27;;;;;;;18.27;12.60;;;9.90;87.10;;;;;;6306386;22;19995;-83
2023/01/15 04:31:56;;;;;;;16.85;12.18;;;9.90;87.50;;;;;;6307351;22;20018;-83
2023/01/15 04:34:26;;;;;;;21.10;12.57;;;9.80;87.20;;;;;;6307169;22;19999;-85
2023/01/15 04:36:53;;;;;;;19.85;14.07;;;9.80;87.50;;;;;;6306522;22;20139;-84
2023/01/15 04:39:19;;;;;;;22.10;14.25;;;;;;;;;;6306708;22;20003;-84
2023/01/15 04:44:29;;;;;;;16.38;11.80;;;9.10;89.00;;;;;;6309219;22;20128;-84
2023/01/15 04:46:56;;;;;;;20.45;13.65;;;9.10;89.50;;;;;;6309291;22;19999;-86
2023/01/15 04:49:22;;;;;;;18.98;12.68;;;9.10;88.80;;;;;;6308462;22;20003;-86
2023/01/15 04:51:48;;;;;;;19.10;13.27;;;9.10;89.00;;;;;;6309131;22;20398;-85
2023/01/15 04:54:15;;;;;;;22.63;13.35;;;9.10;88.90;;;;;;6281664;22;20014;-85
2023/01/15 04:56:43;;;;;;;22.90;13.80;;;9.00;89.00;;;;;;6308442;22;20019;-85
2023/01/15 04:59:09;;;;;;;19.58;13.57;;;9.00;89.20;;;;;;6309190;22;20029;-84
2023/01/15 05:01:40;;;;;;;17.17;11.80;;;8.80;89.00;;;;;;6281892;22;20104;-84
2023/01/15 05:04:07;;;;;;;18.17;12.57;;;8.90;89.80;;;;;;6309219;22;20070;-86
2023/01/15 05:06:33;;;;;;;15.43;11.07;;;8.80;90.00;;;;;;6307469;22;20014;-86
2023/01/15 05:08:59;;;;;;;14.63;10.77;;;8.90;89.40;;;;;;6309236;22;20008;-86
2023/01/15 05:11:26;;;;;;;13.85;10.40;;;8.90;89.80;;;;;;6308611;22;20502;-85
2023/01/15 05:13:52;;;;;;;16.05;10.88;;;;;;;;;;6309101;22;20033;-85
2023/01/15 05:16:20;;;;;;;16.45;11.32;;;9.10;89.10;;;;;;6308897;22;20007;-85
2023/01/15 05:18:47;;;;;;;15.90;11.15;;;9.20;89.30;;;;;;6308448;22;20003;-83
2023/01/15 05:21:24;;;;;;;16.30;10.60;;;9.20;89.00;;;;;;6309065;22;20007;-83
2023/01/15 05:23:52;;;;;;;18.08;12.23;;;9.30;88.80;;;;;;6308178;22;20378;-83
2023/01/15 05:26:18;;;;;;;15.43;10.35;;;9.40;88.50;;;;;;6308479;22;20003;-85
2023/01/15 05:28:44;;;;;;;14.85;11.40;;;9.40;87.80;;;;;;6308775;22;20317;-84
2023/01/15 05:31:12;;;;;;;13.82;10.90;;;9.50;88.20;;;;;;6309100;22;20058;-84
2023/01/15 05:33:38;;;;;;;16.83;11.07;;;9.50;87.60;;;;;;6308467;22;20457;-85
2023/01/15 05:36:06;;;;;;;15.93;11.40;;;9.60;88.00;;;;;;6280981;22;20007;-85
2023/01/15 05:38:32;;;;;;;17.20;12.05;;;9.50;87.90;;;;;;6308461;22;20475;-84
2023/01/15 05:40:58;;;;;;;18.42;12.30;;;9.50;87.80;;;;;;6280714;22;20374;-84
2023/01/15 05:43:24;;;;;;;16.08;11.93;;;9.60;87.80;;;;;;6308523;22;20006;-84
2023/01/15 05:45:50;;;;;;;16.98;11.90;;;9.60;87.80;;;;;;6307842;22;19999;-85
2023/01/15 05:48:16;;;;;;;15.18;10.80;;;9.60;87.80;;;;;;6308459;22;19995;-85
2023/01/15 05:50:42;;;;;;;21.67;14.18;;;;;;;;;;6308904;22;20022;-85
2023/01/15 05:53:07;;;;;;;16.50;11.25;;;9.40;87.10;;;;;;6308834;22;20026;-84
2023/01/15 05:55:33;;;;;;;15.32;10.98;;;9.20;88.60;;;;;;6308369;22;19999;-84
2023/01/15 05:57:59;;;;;;;17.20;11.60;;;9.10;89.00;;;;;;6308919;22;20007;-85
2023/01/15 06:00:24;;;;;;;15.23;11.18;;;9.00;89.20;;;;;;6309047;22;20086;-84
2023/01/15 06:02:51;;;;;;;19.75;12.75;;;8.90;89.40;;;;;;6308792;22;20021;-84
2023/01/15 06:05:20;;;;;;;16.10;11.25;;;8.90;89.50;;;;;;6307967;22;19999;-83
2023/01/15 06:07:51;;;;;;;16.92;12.18;;;9.00;89.90;;;;;;6308149;22;20002;-84
2023/01/15 06:10:17;;;;;;;18.13;13.45;;;8.90;89.00;;;;;;6307567;22;19996;-84
2023/01/15 06:12:43;;;;;;;15.88;11.07;;;8.90;89.40;;;;;;6307926;22;19995;-84
2023/01/15 06:15:10;;;;;;;15.60;10.68;;;9.00;89.40;;;;;;6308270;22;19999;-84
2023/01/15 06:17:36;;;;;;;17.10;11.02;;;9.00;89.40;;;;;;6308726;22;19999;-83
2023/01/15 06:20:03;;;;;;;12.82;9.43;;;8.80;89.60;;;;;;6307729;22;20009;-84
2023/01/15 06:22:28;;;;;;;15.77;11.25;;;8.80;89.50;;;;;;6280794;22;20471;-84
2023/01/15 06:24:54;;;;;;;16.83;10.63;;;8.80;90.10;;;;;;6307245;22;20007;-86
2023/01/15 06:27:20;;;;;;;12.63;9.82;;;8.80;90.00;;;;;;6308613;22;20003;-85
2023/01/15 06:29:45;;;;;;;14.80;10.32;;;8.80;89.90;;;;;;6308225;22;20084;-85
2023/01/15 06:32:11;;;;;;;12.65;9.30;;;8.80;89.50;;;;;;6307605;22;19995;-85
2023/01/15 06:34:37;;;;;;;14.55;10.20;;;;;;;;;;6307845;22;19999;-86
2023/01/15 06:37:03;;;;;;;13.77;10.77;;;9.00;89.40;;;;;;6308743;22;20022;-86
2023/01/15 06:39:28;;;;;;;13.63;10.52;;;8.90;89.50;;;;;;6307888;22;20448;-85
2023/01/15 06:47:23;;;;;;;14.32;10.75;;;8.90;89.90;;;;;;6307948;22;20017;-84
2023/01/15 06:49:54;;;;;;;16.13;11.18;;;8.70;90.00;;;;;;6307229;22;20121;-84
2023/01/15 06:52:20;;;;;;;17.65;12.60;;;8.80;90.20;;;;;;6307666;22;19996;-83
2023/01/15 06:54:46;;;;;;;16.33;11.20;;;8.70;90.40;;;;;;6307363;22;20000;-83
2023/01/15 06:57:12;;;;;;;17.90;11.95;;;8.70;90.60;;;;;;6307721;22;20329;-83
2023/01/15 06:59:38;;;;;;;19.40;13.55;;;8.80;90.40;;;;;;6307247;22;20004;-83
2023/01/15 07:02:03;;;;;;;15.30;10.82;;;8.60;90.60;;;;;;6307967;22;20041;-83
2023/01/15 07:04:29;;;;;;;16.45;11.63;;;8.60;90.50;;;;;;6307512;22;19999;-84
2023/01/15 07:06:55;;;;;;;18.80;14.57;;;8.70;90.60;;;;;;6308075;22;20081;-85
2023/01/15 07:09:21;;;;;;;17.88;13.40;;;8.60;90.60;;;;;;6306421;22;20000;-85
2023/01/15 07:11:49;;;;;;;17.42;13.07;;;8.40;91.00;;;;;;6307176;22;19999;-82
2023/01/15 07:14:19;;;;;;;15.45;11.50;;;8.30;91.20;;;;;;6306842;22;19995;-82
2023/01/15 07:16:45;;;;;;;20.55;13.40;;;8.40;91.00;;;;;;6279509;22;20038;-82
2023/01/15 07:19:11;;;;;;;21.20;14.30;;;8.40;91.00;;;;;;6306282;22;20287;-82
2023/01/15 07:21:37;;;;;;;15.75;12.07;;;8.50;90.90;;;;;;6306710;22;20414;-83
2023/01/15 07:24:03;;;;;;;16.70;12.48;;;8.60;90.80;;;;;;6306878;22;19999;-83
2023/01/15 07:26:28;;;;;;;16.92;11.25;;;8.70;90.70;;;;;;6307375;22;20788;-82
2023/01/15 07:28:54;;;;;;;19.98;12.57;;;8.80;90.60;;;;;;6306478;22;20011;-83
2023/01/15 07:31:20;;;;;;;16.92;12.13;;;8.90;90.40;;;;;;6307171;22;20067;-84
2023/01/15 07:33:48;;;;;;;19.48;11.85;;;9.00;90.30;;;;;;6279899;22;20010;-84
2023/01/15 07:36:14;;;;;;;16.65;10.55;;;9.00;90.10;;;;;;6280543;22;20007;-82
2023/01/15 07:38:39;;;;;;;15.35;10.75;;;9.00;90.20;;;;;;6307770;22;20003;-85
2023/01/15 07:52:02;;;;;;;15.40;11.60;;;9.00;90.30;;;;;;6306703;22;20444;-81
2023/01/15 07:54:28;;;;;;;15.82;10.27;;;9.00;89.80;;;;;;6306925;22;20000;-82
2023/01/15 07:56:55;;;;;;;17.63;11.25;;;9.00;90.10;;;;;;6306470;22;20665;-82
2023/01/15 07:59:20;;;;;;;15.43;12.13;;;9.00;90.10;;;;;;6305701;22;20406;-83
2023/01/15 08:01:46;;;;;;;13.73;10.43;;;8.90;89.60;;;;;;6305543;22;20014;-82
2023/01/15 08:04:12;;;;;;;16.08;12.20;;;9.00;90.20;;;;;;6303854;22;20448;-81
2023/01/15 08:06:38;;;;;;;19.98;12.90;;;8.80;90.30;;;;;;6304974;22;20011;-81
2023/01/15 08:09:04;;;;;;;19.80;14.45;;;8.80;90.40;;;;;;6305148;22;19999;-80
2023/01/15 08:16:58;;;;;;;17.85;12.25;;;8.80;91.00;;;;;;6306757;22;20014;-82
2023/01/15 08:19:28;;;;;;;17.23;11.60;;;9.10;90.20;;;;;;6306469;22;20306;-84
2023/01/15 08:22:00;;;;;;;18.23;12.25;;;9.10;90.30;;;;;;6278972;22;20008;-81
2023/01/15 08:24:27;;;;;;;18.05;12.35;;;9.20;90.10;;;;;;6279590;22;20345;-82
2023/01/15 08:26:53;;;;;;;18.90;11.40;;;;;;;;;;6306765;22;20003;-81
2023/01/15 08:29:19;;;;;;;15.43;11.57;;;9.20;89.50;;;;;;6306738;22;19999;-84
2023/01/15 08:31:45;;;;;;;20.17;13.40;;;9.20;89.90;;;;;;6305371;22;19999;-79
2023/01/15 08:34:10;;;;;;;16.92;12.32;;;9.30;90.10;;;;;;6302508;22;20022;-79
2023/01/15 08:36:36;;;;;;;15.77;11.85;;;9.20;89.70;;;;;;6278774;22;20086;-82
2023/01/15 08:39:03;;;;;;;16.55;12.13;;;9.20;90.00;;;;;;6306974;22;19999;-82
2023/01/15 08:41:29;;;;;;;16.88;11.95;;;9.30;90.00;;;;;;6307012;22;20011;-82
2023/01/15 08:43:55;;;;;;;21.83;12.35;;;9.30;90.00;;;;;;6306722;22;20022;-82
2023/01/15 08:46:20;;;;;;;18.63;11.98;;;9.30;90.00;;;;;;6307137;22;19999;-82
2023/01/15 08:48:47;;;;;;;16.45;11.82;;;9.40;90.00;;;;;;6307697;22;19999;-82
2023/01/15 08:51:13;;;;;;;17.33;12.43;;;9.50;89.90;;;;;;6302215;22;20345;-82
2023/01/15 08:53:39;;;;;;;20.67;13.27;;;9.50;89.70;;;;;;6305972;22;20429;-82
2023/01/15 08:56:12;;;;;;;14.38;11.25;;;9.60;89.40;;;;;;6305756;22;20338;-81
2023/01/15 08:58:38;;;;;;;18.65;12.45;;;9.60;89.80;;;;;;6307236;22;20418;-82
2023/01/15 09:01:05;;;;;;;17.75;12.52;;;9.70;89.60;;;;;;6306461;22;20007;-83
2023/01/15 09:03:31;;;;;;;16.17;11.02;;;9.70;89.40;;;;;;6306182;22;20009;-82
2023/01/15 09:05:58;;;;;;;17.25;11.60;;;9.80;89.20;;;;;;6279063;22;20007;-83
2023/01/15 09:08:24;;;;;;;15.65;9.80;;;;;;;;;;6303747;22;20760;-83
2023/01/15 09:10:50;;;;;;;15.57;10.65;;;;;;;;;;6304026;22;20169;-82
2023/01/15 09:13:16;;;;;;;15.70;10.32;;;9.90;88.80;;;;;;6304214;22;20003;-82
2023/01/15 09:15:42;;;;;;;16.33;11.02;;;9.90;88.60;;;;;;6306962;22;20448;-81
2023/01/15 09:18:10;;;;;;;16.42;12.02;;;10.00;89.10;;;;;;6306638;22;20037;-81
2023/01/15 09:20:35;;;;;;;15.82;11.88;;;10.00;89.00;;;;;;6307140;22;20015;-81
2023/01/15 09:23:01;;;;;;;17.88;11.70;;;10.00;88.90;;;;;;6306844;22;20428;-81
2023/01/15 09:25:27;;;;;;;17.35;11.63;;;9.90;88.50;;;;;;6306899;22;20060;-80
2023/01/15 09:27:55;;;;;;;17.42;11.52;;;9.90;89.00;;;;;;6307304;22;20002;-81
2023/01/15 09:30:21;;;;;;;19.27;12.45;;;9.90;89.20;;;;;;6308685;22;20034;-81
2023/01/15 09:32:47;;;;;;;18.95;11.60;;;9.90;89.00;;;;;;6308382;22;20302;-81
2023/01/15 09:35:14;;;;;;;17.30;12.20;;;9.90;89.30;;;;;;6308541;22;20497;-81
2023/01/15 09:37:40;;;;;;;17.75;12.20;;;10.00;89.10;;;;;;6308909;22;20082;-81
2023/01/15 09:40:08;;;;;;;16.10;11.75;;;10.00;89.10;;;;;;6308546;22;20041;-81
2023/01/15 09:42:59;;;;;;;15.82;11.32;;;10.00;88.80;;;;;;6308105;22;20425;-81
2023/01/15 09:45:36;;;;;;;16.95;12.18;;;10.00;89.20;;;;;;6308157;22;20090;-81
2023/01/15 09:48:37;;;;;;;19.20;13.55;;;10.00;89.10;;;;;;6308348;22;20365;-81
2023/01/15 09:51:31;;;;;;;17.77;12.45;;;10.00;89.10;;;;;;6280975;22;20057;-81
2023/01/15 09:54:20;;;;;;;17.27;12.30;;;10.00;89.20;;;;;;6307653;22;20302;-81
2023/01/15 09:56:46;;;;;;;20.20;14.00;;;10.00;88.70;;;;;;6306043;22;20007;-81
2023/01/15 09:59:28;;;;;;;18.48;13.40;;;10.00;88.80;;;;;;6308756;22;19999;-81
2023/01/15 10:01:55;;;;;;;18.50;12.65;;;10.00;89.00;;;;;;6307446;22;20000;-82
2023/01/15 10:04:42;;;;;;;17.98;11.50;;;9.90;88.60;;;;;;6306688;22;20007;-81
2023/01/15 10:07:17;;;;;;;16.52;11.02;;;;;;;;;;6279801;22;20007;-81
2023/01/15 10:09:43;;;;;;;19.00;12.98;;;9.90;88.70;;;;;;6307828;22;20414;-81
2023/01/15 10:12:34;;;;;;;16.80;11.90;;;10.00;88.70;;;;;;6308049;22;20057;-81
2023/01/15 10:15:14;;;;;;;19.35;11.90;;;10.00;89.10;;;;;;6305130;22;20025;-81
2023/01/15 10:17:42;;;;;;;15.40;11.55;;;;;;;;;;6306810;22;20037;-76
2023/01/15 10:20:16;;;;;;;17.02;12.65;;;10.00;88.80;;;;;;6306976;22;20007;-78
2023/01/15 10:23:12;;;;;;;16.30;11.65;;;10.00;89.10;;;;;;6306568;22;20007;-79
2023/01/15 10:25:50;;;;;;;20.17;14.02;;;10.00;88.90;;;;;;6306790;22;19999;-79
2023/01/15 10:28:23;;;;;;;19.73;13.68;;;10.10;89.40;;;;;;6306168;22;20002;-81
2023/01/15 10:31:01;;;;;;;19.23;13.13;;;10.10;89.30;;;;;;6307822;22;19999;-80
2023/01/15 10:33:32;;;;;;;20.95;13.95;;;10.10;89.40;;;;;;6279521;22;20108;-81
2023/01/15 10:36:04;;;;;;;17.95;13.18;;;10.20;89.50;;;;;;6304426;22;20003;-81
2023/01/15 10:38:46;;;;;;;21.10;14.20;;;10.20;89.20;;;;;;6306305;22;20341;-84
2023/01/15 10:41:32;;;;;;;15.98;12.80;;;10.30;89.60;;;;;;6305561;22;20434;-81
2023/01/15 10:44:26;;;;;;;19.02;12.68;;;10.30;89.60;;;;;;6306115;22;20026;-80
2023/01/15 10:46:57;;;;;;;21.88;12.73;;;10.30;89.00;;;;;;6308354;22;20003;-83
2023/01/15 10:49:29;;;;;;;21.90;12.60;;;10.30;89.40;;;;;;6307613;22;20381;-80
2023/01/15 10:52:06;;;;;;;18.92;13.55;;;10.40;89.10;;;;;;6308002;22;19999;-80
2023/01/15 10:54:40;;;;;;;18.33;13.32;;;10.30;89.50;;;;;;6308110;22;20022;-80
2023/01/15 10:57:37;;;;;;;21.30;13.35;;;10.30;89.40;;;;;;6307330;22;20018;-79
2023/01/15 11:00:04;;;;;;;19.02;12.88;;;10.30;89.80;;;;;;6306942;22;20003;-79
2023/01/15 11:02:57;;;;;;;17.42;13.20;;;10.30;90.10;;;;;;6307073;22;20074;-79
2023/01/15 11:05:24;;;;;;;19.52;14.10;;;10.40;90.20;;;;;;6307316;22;20010;-84
2023/01/15 11:07:52;;;;;;;19.35;14.63;;;10.30;90.30;;;;;;6306892;22;19999;-84
2023/01/15 11:10:20;;;;;;;24.00;15.18;;;10.40;90.40;;;;;;6308017;22;20006;-85
2023/01/15 11:21:29;;;;;;;20.73;14.95;;;10.30;90.60;;;;;;6306327;22;20717;-85
2023/01/15 11:23:57;;;;;;;19.05;13.57;;;10.30;90.70;;;;;;6305548;22;20424;-84
2023/01/15 11:26:31;;;;;;;22.10;15.40;;;10.30;90.60;;;;;;6305469;22;20033;-84
2023/01/15 11:29:10;;;;;;;21.10;15.10;;;10.40;90.60;;;;;;6303103;22;20437;-85
2023/01/15 11:31:53;;;;;;;23.30;15.80;;;10.40;90.90;;;;;;6305402;22;19999;-85
2023/01/15 11:34:20;;;;;;;20.85;14.82;;;10.40;90.90;;;;;;6277400;22;20077;-84
2023/01/15 11:36:46;;;;;;;21.58;15.40;;;10.40;91.00;;;;;;6276258;22;20396;-85
2023/01/15 11:39:29;;;;;;;22.75;16.67;;;10.40;91.10;;;;;;6304682;22;20014;-85
2023/01/15 11:50:55;;;;;;;24.02;16.50;;;10.50;91.10;;;;;;6303526;22;20065;-85
2023/01/15 11:53:31;;;;;;;22.75;15.57;;;10.50;91.30;;;;;;6303020;22;20026;-85
2023/01/15 11:56:01;;;;;;;22.77;16.73;;;10.40;91.30;;;;;;6301466;22;20011;-87
2023/01/15 11:58:45;;;;;;;24.35;17.15;;;10.40;91.40;;;;;;6302995;22;20429;-88
2023/01/15 12:01:24;;;;;;;23.58;16.75;;;10.40;91.60;;;;;;6304794;22;19999;-87
2023/01/15 12:03:50;;;;;;;23.75;17.25;;;10.40;91.90;;;;;;6302385;22;20007;-90
2023/01/15 12:06:19;;;;;;;22.92;17.45;;;10.40;91.80;;;;;;6302970;22;20006;-85
2023/01/15 12:08:54;;;;;;;20.45;16.05;;;10.50;92.00;;;;;;6305888;22;19995;-87
2023/01/15 12:11:54;;;;;;;22.90;15.85;;;10.50;92.00;;;;;;6305800;22;20319;-87
2023/01/15 12:15:00;;;;;;;22.42;16.33;;;10.50;92.00;;;;;;6304514;22;20098;-87
2023/01/15 12:18:04;;;;;;;20.25;14.82;;;10.50;92.10;;;;;;6305477;22;20011;-87
2023/01/15 12:21:01;;;;;;;19.40;13.38;;;10.40;92.20;;;;;;6261990;22;20367;-87
2023/01/15 12:23:42;;;;;;;18.73;14.80;;;10.30;92.30;;;;;;6305905;22;20314;-86
2023/01/15 12:26:29;;;;;;;18.00;14.07;;;10.30;92.40;;;;;;6305670;22;19999;-87
2023/01/15 12:28:58;;;;;;;19.80;14.45;;;10.30;92.40;;;;;;6305817;22;20007;-87
2023/01/15 12:31:49;;;;;;;23.45;15.38;;;10.30;92.40;;;;;;6306529;22;20002;-87
2023/01/15 12:34:33;;;;;;;17.60;13.57;;;10.30;92.50;;;;;;6305806;22;20041;-87
2023/01/15 12:37:05;;;;;;;19.33;13.50;;;10.30;92.50;;;;;;6305695;22;20007;-88
2023/01/15 12:39:44;;;;;;;18.83;13.07;;;10.30;92.50;;;;;;6305994;22;20433;-88
2023/01/15 12:45:09;;;;;;;17.73;13.65;;;10.40;92.70;;;;;;6257094;22;1137683;-87
2023/01/15 12:48:12;;;;;;;16.42;12.65;;;10.40;92.50;;;;;;6304872;22;20022;-87
2023/01/15 12:50:53;;;;;;;19.30;13.57;;;10.40;92.50;;;;;;6306500;22;19995;-87
2023/01/15 12:53:19;;;;;;;19.67;14.05;;;10.40;92.20;;;;;;6306901;22;20022;-87
2023/01/15 12:56:09;;;;;;;23.35;16.65;;;10.30;92.20;;;;;;6305963;22;19995;-87
2023/01/15 12:58:56;;;;;;;16.42;13.13;;;10.20;92.40;;;;;;6305930;22;20482;-88
2023/01/15 13:01:30;;;;;;;21.08;15.05;;;10.20;92.50;;;;;;6306437;22;20490;-78
2023/01/15 13:04:24;;;;;;;19.90;14.43;;;10.20;92.60;;;;;;6308300;22;20040;-87
2023/01/15 13:07:21;;;;;;;21.08;14.00;;;10.20;92.50;;;;;;6304332;22;20007;-88
2023/01/15 13:10:22;;;;;;;18.05;13.18;;;10.20;92.70;;;;;;6268452;22;20014;-88
2023/01/15 13:12:49;;;;;;;20.33;13.30;;;10.30;92.60;;;;;;6274857;22;20033;-81
2023/01/15 13:15:16;;;;;;;17.80;12.80;;;10.30;92.80;;;;;;6305590;22;20003;-81
2023/01/15 13:18:08;;;;;;;16.65;12.68;;;10.30;92.80;;;;;;6305686;22;20062;-81
2023/01/15 13:20:34;;;;;;;15.27;11.63;;;10.30;92.70;;;;;;6293634;22;20011;-91
2023/01/15 13:23:03;;;;;;;15.45;11.88;;;10.30;92.90;;;;;;6308468;22;19999;-92
2023/01/15 13:25:57;;;;;;;15.00;11.03;;;10.30;92.70;;;;;;6305864;22;20068;-91
2023/01/15 13:28:28;;;;;;;16.73;11.05;;;10.20;92.60;;;;;;6304525;22;20011;-92
2023/01/15 13:31:10;;;;;;;15.52;11.95;;;10.20;92.80;;;;;;6307525;22;20003;-92
2023/01/15 13:33:45;;;;;;;13.10;10.50;;;10.20;92.80;;;;;;6307766;22;20723;-87
2023/01/15 13:36:33;;;;;;;14.82;10.98;;;10.20;92.70;;;;;;6306007;22;20010;-81
2023/01/15 13:39:02;;;;;;;16.45;12.85;;;10.20;92.90;;;;;;6305366;22;20007;-81
2023/01/15 13:44:26;;;;;;;16.98;13.60;;;10.10;93.00;;;;;;6300402;22;20102;-90
2023/01/15 13:47:24;;;;;;;21.55;14.95;;;10.00;93.00;;;;;;6302491;22;20015;-84
2023/01/15 13:49:59;;;;;;;17.33;14.13;;;10.00;93.60;;;;;;6302644;22;20074;-86
2023/01/15 13:52:31;;;;;;;19.02;13.40;;;9.80;93.70;;;;;;6306254;22;20453;-86